createdAt,value
2018-12-13T00:00:18.597Z,-0.30
2018-12-13T00:02:45.429Z,-0.40
2018-12-13T00:05:12.126Z,-0.30
2018-12-13T00:07:38.848Z,-0.30
2018-12-13T00:10:12.382Z,-0.30
2018-12-13T00:12:39.110Z,-0.40
2018-12-13T00:15:05.807Z,-0.40
2018-12-13T00:17:32.631Z,-0.50
2018-12-13T00:19:59.375Z,-0.60
2018-12-13T00:22:26.094Z,-0.50
2018-12-13T00:24:52.786Z,-0.50
2018-12-13T00:27:19.508Z,-0.60
2018-12-13T00:29:46.211Z,-0.60
2018-12-13T00:32:12.930Z,-0.60
2018-12-13T00:34:39.617Z,-0.60
2018-12-13T00:37:06.362Z,-0.60
2018-12-13T00:39:33.059Z,-0.60
2018-12-13T00:41:59.790Z,-0.60
2018-12-13T00:44:26.495Z,-0.60
2018-12-13T00:46:53.198Z,-0.60
2018-12-13T00:49:19.934Z,-0.50
2018-12-13T00:51:46.626Z,-0.50
2018-12-13T00:54:13.378Z,-0.50
2018-12-13T00:56:40.078Z,-0.50
2018-12-13T00:59:06.803Z,-0.50
2018-12-13T01:01:33.516Z,-0.60
2018-12-13T01:04:00.267Z,-0.50
2018-12-13T01:06:27.107Z,-0.50
2018-12-13T01:08:53.827Z,-0.60
2018-12-13T01:11:20.522Z,-0.50
2018-12-13T01:13:47.250Z,-0.60
2018-12-13T01:16:19.862Z,-0.60
2018-12-13T01:18:46.590Z,-0.70
2018-12-13T01:21:13.407Z,-0.80
2018-12-13T01:23:40.139Z,-0.80
2018-12-13T01:26:06.834Z,-0.80
2018-12-13T01:28:33.561Z,-0.80
2018-12-13T01:31:00.254Z,-0.80
2018-12-13T01:33:26.974Z,-0.80
2018-12-13T01:35:53.696Z,-0.80
2018-12-13T01:38:20.541Z,-0.80
2018-12-13T01:40:47.230Z,-0.80
2018-12-13T01:43:13.951Z,-0.80
2018-12-13T01:45:41.046Z,-0.90
2018-12-13T01:48:07.762Z,-0.90
2018-12-13T01:50:34.458Z,-0.80
2018-12-13T01:53:01.181Z,-0.90
2018-12-13T01:55:27.878Z,-1.00
2018-12-13T01:57:54.594Z,-1.00
2018-12-13T02:00:21.319Z,-1.00
2018-12-13T02:02:48.040Z,-1.00
2018-12-13T02:05:14.879Z,-0.90
2018-12-13T02:07:42.396Z,-0.90
2018-12-13T02:10:09.127Z,-0.80
2018-12-13T02:12:35.844Z,-0.80
2018-12-13T02:15:02.574Z,-0.80
2018-12-13T02:17:29.292Z,-0.80
2018-12-13T02:19:55.994Z,-0.80
2018-12-13T02:22:22.710Z,-0.80
2018-12-13T02:24:49.438Z,-0.70
2018-12-13T02:27:16.257Z,-0.70
2018-12-13T02:29:43.032Z,-0.70
2018-12-13T02:32:09.755Z,-0.80
2018-12-13T02:34:36.446Z,-0.70
2018-12-13T02:37:06.253Z,-0.70
2018-12-13T02:39:31.923Z,-0.60
2018-12-13T02:41:58.644Z,-0.60
2018-12-13T02:44:25.338Z,-0.60
2018-12-13T02:46:59.156Z,-0.60
2018-12-13T02:49:25.851Z,-0.60
2018-12-13T02:51:52.566Z,-0.60
2018-12-13T02:54:19.272Z,-0.50
2018-12-13T02:56:45.970Z,-0.50
2018-12-13T02:59:12.694Z,-0.50
2018-12-13T03:01:39.398Z,-0.50
2018-12-13T03:04:07.224Z,-0.50
2018-12-13T03:06:34.039Z,-0.50
2018-12-13T03:09:00.862Z,-0.50
2018-12-13T03:11:27.554Z,-0.60
2018-12-13T03:13:54.275Z,-0.60
2018-12-13T03:16:21.002Z,-0.60
2018-12-13T03:18:47.722Z,-0.60
2018-12-13T03:21:14.418Z,-0.70
2018-12-13T03:23:41.359Z,-0.90
2018-12-13T03:26:08.055Z,-1.00
2018-12-13T03:28:34.812Z,-0.90
2018-12-13T03:31:01.525Z,-0.90
2018-12-13T03:33:28.251Z,-0.90
2018-12-13T03:35:54.950Z,-0.90
2018-12-13T03:38:21.695Z,-0.80
2018-12-13T03:40:48.390Z,-0.90
2018-12-13T03:43:15.121Z,-0.90
2018-12-13T03:45:41.920Z,-0.90
2018-12-13T03:48:08.620Z,-0.90
2018-12-13T03:50:35.346Z,-0.90
2018-12-13T03:53:02.035Z,-0.90
2018-12-13T03:55:28.754Z,-1.00
2018-12-13T03:57:55.450Z,-1.00
2018-12-13T04:00:22.179Z,-1.00
2018-12-13T04:02:48.876Z,-1.00
2018-12-13T04:05:15.607Z,-1.00
2018-12-13T04:07:42.299Z,-1.00
2018-12-13T04:10:09.014Z,-1.10
2018-12-13T04:12:35.706Z,-1.10
2018-12-13T04:15:02.555Z,-1.10
2018-12-13T04:17:29.249Z,-1.10
2018-12-13T04:19:55.970Z,-1.10
2018-12-13T04:22:22.671Z,-1.10
2018-12-13T04:24:49.386Z,-1.00
2018-12-13T04:27:16.082Z,-1.00
2018-12-13T04:29:42.803Z,-1.00
2018-12-13T04:32:09.494Z,-1.00
2018-12-13T04:34:36.223Z,-1.00
2018-12-13T04:37:02.931Z,-1.00
2018-12-13T04:39:29.678Z,-0.90
2018-12-13T04:41:56.367Z,-0.90
2018-12-13T04:44:23.090Z,-0.80
2018-12-13T04:46:49.790Z,-0.80
2018-12-13T04:49:16.510Z,-0.80
2018-12-13T04:51:43.215Z,-0.80
2018-12-13T04:54:09.926Z,-0.80
2018-12-13T04:56:36.626Z,-0.80
2018-12-13T04:59:03.328Z,-0.80
2018-12-13T05:01:30.102Z,-0.80
2018-12-13T05:03:56.850Z,-0.80
2018-12-13T05:06:23.575Z,-0.90
2018-12-13T05:08:50.305Z,-0.90
2018-12-13T05:11:17.102Z,-0.90
2018-12-13T05:13:43.807Z,-0.80
2018-12-13T05:16:10.525Z,-0.90
2018-12-13T05:18:37.224Z,-0.90
2018-12-13T05:21:03.947Z,-0.90
2018-12-13T05:23:30.638Z,-0.80
2018-12-13T05:25:57.362Z,-0.80
2018-12-13T05:28:24.054Z,-0.90
2018-12-13T05:30:50.775Z,-0.90
2018-12-13T05:33:17.473Z,-0.90
2018-12-13T05:35:44.256Z,-0.80
2018-12-13T05:38:11.000Z,-0.90
2018-12-13T05:40:37.729Z,-1.00
2018-12-13T05:43:04.414Z,-0.90
2018-12-13T05:45:31.143Z,-0.80
2018-12-13T05:47:57.842Z,-0.80
2018-12-13T05:50:24.582Z,-0.80
2018-12-13T05:52:51.275Z,-0.70
2018-12-13T05:55:17.994Z,-0.70
2018-12-13T05:57:44.682Z,-0.70
2018-12-13T06:00:11.496Z,-0.70
2018-12-13T06:02:38.189Z,-0.70
2018-12-13T06:05:05.154Z,-0.70
2018-12-13T06:07:31.842Z,-0.70
2018-12-13T06:09:58.554Z,-0.70
2018-12-13T06:12:25.251Z,-0.70
2018-12-13T06:14:51.952Z,-0.70
2018-12-13T06:17:18.673Z,-0.70
2018-12-13T06:19:45.366Z,-0.70
2018-12-13T06:22:12.089Z,-0.80
2018-12-13T06:24:38.782Z,-0.80
2018-12-13T06:27:05.512Z,-0.80
2018-12-13T06:29:32.210Z,-0.80
2018-12-13T06:31:58.931Z,-0.80
2018-12-13T06:34:25.658Z,-0.80
2018-12-13T06:36:52.391Z,-0.80
2018-12-13T06:39:19.090Z,-0.70
2018-12-13T06:41:45.815Z,-0.70
2018-12-13T06:44:12.530Z,-0.70
2018-12-13T06:46:39.251Z,-0.70
2018-12-13T06:49:05.946Z,-0.60
2018-12-13T06:51:32.671Z,-0.60
2018-12-13T06:53:59.380Z,-0.60
2018-12-13T06:56:26.110Z,-0.60
2018-12-13T06:58:52.806Z,-0.50
2018-12-13T07:01:19.534Z,-0.50
2018-12-13T07:03:46.222Z,-0.50
2018-12-13T07:06:12.944Z,-0.60
2018-12-13T07:08:39.646Z,-0.60
2018-12-13T07:11:06.374Z,-0.60
2018-12-13T07:13:33.066Z,-0.60
2018-12-13T07:15:59.791Z,-0.60
2018-12-13T07:18:26.482Z,-0.60
2018-12-13T07:20:53.207Z,-0.60
2018-12-13T07:23:19.906Z,-0.60
2018-12-13T07:25:46.645Z,-0.50
2018-12-13T07:28:13.442Z,-0.50
2018-12-13T07:30:40.156Z,-0.50
2018-12-13T07:33:06.860Z,-0.50
2018-12-13T07:35:33.578Z,-0.50
2018-12-13T07:38:00.273Z,-0.40
2018-12-13T07:40:26.978Z,-0.40
2018-12-13T07:42:53.670Z,-0.40
2018-12-13T07:45:20.387Z,-0.40
2018-12-13T07:47:47.173Z,-0.30
2018-12-13T07:50:13.883Z,-0.30
2018-12-13T07:52:40.603Z,-0.30
2018-12-13T07:55:07.293Z,-0.40
2018-12-13T07:57:33.999Z,-0.40
2018-12-13T08:00:00.698Z,-0.40
2018-12-13T08:02:27.407Z,-0.40
2018-12-13T08:04:54.110Z,-0.30
2018-12-13T08:07:20.823Z,-0.30
2018-12-13T08:09:47.527Z,-0.30
2018-12-13T08:12:14.346Z,-0.30
2018-12-13T08:14:41.042Z,-0.40
2018-12-13T08:17:07.752Z,-0.40
2018-12-13T08:19:34.450Z,-0.40
2018-12-13T08:22:07.958Z,-0.50
2018-12-13T08:24:34.670Z,-0.40
2018-12-13T08:27:01.379Z,-0.40
2018-12-13T08:29:28.070Z,-0.30
2018-12-13T08:31:54.770Z,-0.30
2018-12-13T08:34:21.470Z,-0.30
2018-12-13T08:36:48.282Z,-0.30
2018-12-13T08:39:15.034Z,-0.40
2018-12-13T08:41:41.748Z,-0.40
2018-12-13T08:44:08.440Z,-0.40
2018-12-13T08:46:36.575Z,-0.40
2018-12-13T08:49:03.562Z,-0.40
2018-12-13T08:51:30.264Z,-0.30
2018-12-13T08:53:56.966Z,-0.30
2018-12-13T08:56:23.674Z,-0.20
2018-12-13T08:58:50.362Z,-0.20
2018-12-13T09:01:17.075Z,-0.20
2018-12-13T09:03:43.768Z,-0.20
2018-12-13T09:06:17.395Z,-0.20
2018-12-13T09:08:44.078Z,-0.20
2018-12-13T09:11:10.798Z,-0.10
2018-12-13T09:13:37.490Z,-0.10
2018-12-13T09:16:04.210Z,-0.10
2018-12-13T09:18:30.930Z,0.00
2018-12-13T09:20:57.634Z,0.00
2018-12-13T09:23:32.059Z,-0.10
2018-12-13T09:25:58.761Z,-0.10
2018-12-13T09:28:25.471Z,0.00
2018-12-13T09:30:52.170Z,0.00
2018-12-13T09:33:18.875Z,-0.10
2018-12-13T09:35:45.566Z,-0.10
2018-12-13T09:38:12.269Z,-0.10
2018-12-13T09:40:38.963Z,0.00
2018-12-13T09:43:05.682Z,0.00
2018-12-13T09:45:32.402Z,-0.10
2018-12-13T09:47:59.102Z,-0.20
2018-12-13T09:50:25.819Z,-0.10
2018-12-13T09:52:52.522Z,-0.10
2018-12-13T09:55:19.270Z,-0.10
2018-12-13T09:57:45.978Z,0.00
2018-12-13T10:00:12.682Z,-0.10
2018-12-13T10:02:39.397Z,0.00
2018-12-13T10:05:06.780Z,0.00
2018-12-13T10:07:33.732Z,0.00
2018-12-13T10:10:00.441Z,0.10
2018-12-13T10:12:27.150Z,0.10
2018-12-13T10:14:53.837Z,0.10
2018-12-13T10:17:20.574Z,0.10
2018-12-13T10:19:47.281Z,0.20
2018-12-13T10:22:13.989Z,0.20
2018-12-13T10:24:40.687Z,0.20
2018-12-13T10:27:07.396Z,0.20
2018-12-13T10:29:34.155Z,0.20
2018-12-13T10:32:01.500Z,0.10
2018-12-13T10:34:29.175Z,0.10
2018-12-13T10:36:56.106Z,0.00
2018-12-13T10:39:22.798Z,0.10
2018-12-13T10:41:49.508Z,0.20
2018-12-13T10:44:18.622Z,0.20
2018-12-13T10:46:45.330Z,0.10
2018-12-13T10:49:12.027Z,0.10
2018-12-13T10:51:39.126Z,0.10
2018-12-13T10:54:05.822Z,0.20
2018-12-13T10:56:32.510Z,0.20
2018-12-13T10:58:59.618Z,0.20
2018-12-13T11:01:32.246Z,0.30
2018-12-13T11:03:58.946Z,0.30
2018-12-13T11:06:25.638Z,0.30
2018-12-13T11:08:52.351Z,0.30
2018-12-13T11:11:25.903Z,0.30
2018-12-13T11:13:52.615Z,0.40
2018-12-13T11:16:19.827Z,0.40
2018-12-13T11:18:46.530Z,0.30
2018-12-13T11:21:17.527Z,0.40
2018-12-13T11:23:41.955Z,0.50
2018-12-13T11:26:08.663Z,0.60
2018-12-13T11:28:40.927Z,0.60
2018-12-13T11:31:07.623Z,0.70
2018-12-13T11:33:34.331Z,0.70
2018-12-13T11:36:01.035Z,0.60
2018-12-13T11:38:27.738Z,0.50
2018-12-13T11:40:54.449Z,0.50
2018-12-13T11:43:21.164Z,0.50
2018-12-13T11:45:47.867Z,0.60
2018-12-13T11:48:14.584Z,0.70
2018-12-13T11:50:41.282Z,0.80
2018-12-13T11:53:08.005Z,0.80
2018-12-13T11:55:35.483Z,0.80
2018-12-13T11:58:02.962Z,0.70
2018-12-13T12:00:29.659Z,0.80
2018-12-13T12:02:56.367Z,0.70
2018-12-13T12:05:23.082Z,0.70
2018-12-13T12:07:49.798Z,0.60
2018-12-13T12:10:16.907Z,0.70
2018-12-13T12:12:43.614Z,0.80
2018-12-13T12:15:10.320Z,0.70
2018-12-13T12:17:37.103Z,0.70
2018-12-13T12:20:04.198Z,0.80
2018-12-13T12:22:31.155Z,0.70
2018-12-13T12:24:57.856Z,0.60
2018-12-13T12:27:24.640Z,0.60
2018-12-13T12:29:51.388Z,0.60
2018-12-13T12:32:18.107Z,0.60
2018-12-13T12:34:44.825Z,0.60
2018-12-13T12:37:11.523Z,0.60
2018-12-13T12:39:38.226Z,0.60
2018-12-13T12:42:04.923Z,0.50
2018-12-13T12:44:34.546Z,0.50
2018-12-13T12:47:01.323Z,0.40
2018-12-13T12:49:28.034Z,0.40
2018-12-13T12:51:54.735Z,0.40
2018-12-13T12:54:28.278Z,0.40
2018-12-13T12:56:54.974Z,0.40
2018-12-13T12:59:21.684Z,0.40
2018-12-13T13:01:48.386Z,0.50
2018-12-13T13:04:15.103Z,0.50
2018-12-13T13:06:41.806Z,0.50
2018-12-13T13:09:08.838Z,0.50
2018-12-13T13:11:35.546Z,0.40
2018-12-13T13:14:02.246Z,0.50
2018-12-13T13:16:28.946Z,0.40
2018-12-13T13:18:55.651Z,0.40
2018-12-13T13:21:22.351Z,0.50
2018-12-13T13:23:49.062Z,0.50
2018-12-13T13:26:15.789Z,0.50
2018-12-13T13:28:42.583Z,0.50
2018-12-13T13:31:09.288Z,0.50
2018-12-13T13:33:35.999Z,0.50
2018-12-13T13:36:02.712Z,0.50
2018-12-13T13:38:29.620Z,0.50
2018-12-13T13:40:56.322Z,0.60
2018-12-13T13:43:30.022Z,0.60
2018-12-13T13:45:56.730Z,0.60
2018-12-13T13:48:23.438Z,0.60
2018-12-13T13:50:50.140Z,0.60
2018-12-13T13:53:16.850Z,0.50
2018-12-13T13:55:43.620Z,0.60
2018-12-13T13:58:10.335Z,0.60
2018-12-13T14:00:37.096Z,0.60
2018-12-13T14:03:03.802Z,0.60
2018-12-13T14:05:30.501Z,0.60
2018-12-13T14:07:57.198Z,0.60
2018-12-13T14:10:23.906Z,0.60
2018-12-13T14:12:50.603Z,0.50
2018-12-13T14:15:17.613Z,0.50
2018-12-13T14:17:44.320Z,0.50
2018-12-13T14:20:11.031Z,0.50
2018-12-13T14:22:37.730Z,0.50
2018-12-13T14:25:04.552Z,0.40
2018-12-13T14:27:31.243Z,0.40
2018-12-13T14:29:57.978Z,0.40
2018-12-13T14:32:24.678Z,0.30
2018-12-13T14:34:57.367Z,0.30
2018-12-13T14:37:21.311Z,0.30
2018-12-13T14:39:48.023Z,0.30
2018-12-13T14:42:14.839Z,0.30
2018-12-13T14:44:41.546Z,0.40
2018-12-13T14:47:08.240Z,0.40
2018-12-13T14:49:34.948Z,0.40
2018-12-13T14:52:01.654Z,0.40
2018-12-13T14:54:28.350Z,0.50
2018-12-13T14:56:55.044Z,0.40
2018-12-13T14:59:21.754Z,0.40
2018-12-13T15:01:48.447Z,0.40
2018-12-13T15:04:15.155Z,0.40
2018-12-13T15:06:41.846Z,0.40
2018-12-13T15:09:08.551Z,0.40
2018-12-13T15:11:35.255Z,0.40
2018-12-13T15:14:01.979Z,0.40
2018-12-13T15:16:28.678Z,0.40
2018-12-13T15:18:55.383Z,0.40
2018-12-13T15:21:22.078Z,0.30
2018-12-13T15:23:48.779Z,0.40
2018-12-13T15:26:15.480Z,0.30
2018-12-13T15:28:42.209Z,0.30
2018-12-13T15:31:08.914Z,0.20
2018-12-13T15:33:35.631Z,0.20
2018-12-13T15:36:02.338Z,0.20
2018-12-13T15:38:29.038Z,0.20
2018-12-13T15:40:55.752Z,0.10
2018-12-13T15:43:22.511Z,0.20
2018-12-13T15:45:49.220Z,0.10
2018-12-13T15:48:15.923Z,0.10
2018-12-13T15:50:42.630Z,0.10
2018-12-13T15:53:09.331Z,0.10
2018-12-13T15:55:36.040Z,0.10
2018-12-13T15:58:02.752Z,0.10
2018-12-13T16:00:29.501Z,0.20
2018-12-13T16:02:56.202Z,0.10
2018-12-13T16:05:22.934Z,0.20
2018-12-13T16:07:49.622Z,0.20
2018-12-13T16:10:16.374Z,0.20
2018-12-13T16:12:43.066Z,0.20
2018-12-13T16:15:09.766Z,0.20
2018-12-13T16:17:36.490Z,0.20
2018-12-13T16:20:03.218Z,0.20
2018-12-13T16:22:29.958Z,0.20
2018-12-13T16:24:56.666Z,0.30
2018-12-13T16:27:23.613Z,0.20
2018-12-13T16:29:50.927Z,0.20
2018-12-13T16:32:17.659Z,0.20
2018-12-13T16:34:44.359Z,0.20
2018-12-13T16:37:11.091Z,0.20
2018-12-13T16:39:37.790Z,0.20
2018-12-13T16:42:04.546Z,0.30
2018-12-13T16:44:31.244Z,0.20
2018-12-13T16:46:57.973Z,0.20
2018-12-13T16:49:24.671Z,0.10
2018-12-13T16:51:51.395Z,0.10
2018-12-13T16:54:25.208Z,0.20
2018-12-13T16:56:51.939Z,0.10
2018-12-13T16:59:18.690Z,0.20
2018-12-13T17:01:45.531Z,0.20
2018-12-13T17:04:12.231Z,0.10
2018-12-13T17:06:38.962Z,0.10
2018-12-13T17:09:05.839Z,0.10
2018-12-13T17:11:32.565Z,0.10
2018-12-13T17:13:59.734Z,0.20
2018-12-13T17:16:26.498Z,0.20
2018-12-13T17:18:53.205Z,0.20
2018-12-13T17:21:20.034Z,0.10
2018-12-13T17:23:46.732Z,0.10
2018-12-13T17:26:13.446Z,0.10
2018-12-13T17:28:40.149Z,0.10
2018-12-13T17:31:06.971Z,0.10
2018-12-13T17:33:33.670Z,0.10
2018-12-13T17:36:00.388Z,0.10
2018-12-13T17:38:27.102Z,0.10
2018-12-13T17:40:53.826Z,0.10
2018-12-13T17:43:20.594Z,0.10
2018-12-13T17:48:21.154Z,0.10
2018-12-13T17:50:54.730Z,0.10
2018-12-13T17:53:21.450Z,0.00
2018-12-13T17:55:48.147Z,0.10
2018-12-13T17:58:14.863Z,0.10
2018-12-13T18:00:41.559Z,0.10
2018-12-13T18:03:08.286Z,0.00
2018-12-13T18:05:34.978Z,0.10
2018-12-13T18:08:01.930Z,0.10
2018-12-13T18:10:29.521Z,0.10
2018-12-13T18:12:56.475Z,0.00
2018-12-13T18:15:23.183Z,0.00
2018-12-13T18:17:49.903Z,0.00
2018-12-13T18:20:16.601Z,0.00
2018-12-13T18:22:43.331Z,0.00
2018-12-13T18:25:10.021Z,0.00
2018-12-13T18:27:36.743Z,0.00
2018-12-13T18:30:03.806Z,0.00
2018-12-13T18:32:30.542Z,0.00
2018-12-13T18:34:57.247Z,0.00
2018-12-13T18:37:23.974Z,0.00
2018-12-13T18:39:50.670Z,0.00
2018-12-13T18:42:17.427Z,0.10
2018-12-13T18:44:44.119Z,0.10
2018-12-13T18:47:10.834Z,0.10
2018-12-13T18:49:37.535Z,0.10
2018-12-13T18:52:04.262Z,0.10
2018-12-13T18:54:30.955Z,0.00
2018-12-13T18:56:57.658Z,0.10
2018-12-13T18:59:24.398Z,0.10
2018-12-13T19:01:51.090Z,0.10
2018-12-13T19:04:17.812Z,0.10
2018-12-13T19:06:44.554Z,0.10
2018-12-13T19:09:11.279Z,0.10
2018-12-13T19:11:37.979Z,0.10
2018-12-13T19:14:04.720Z,0.00
2018-12-13T19:16:31.421Z,0.00
2018-12-13T19:18:58.146Z,0.00
2018-12-13T19:21:24.842Z,0.00
2018-12-13T19:23:51.566Z,0.10
2018-12-13T19:26:18.262Z,0.00
2018-12-13T19:28:44.977Z,0.00
2018-12-13T19:31:11.691Z,0.00
2018-12-13T19:33:38.416Z,0.00
2018-12-13T19:36:05.203Z,0.10
2018-12-13T19:38:31.941Z,0.10
2018-12-13T19:40:58.675Z,0.00
2018-12-13T19:43:25.398Z,0.10
2018-12-13T19:45:52.165Z,0.10
2018-12-13T19:48:18.887Z,0.10
2018-12-13T19:50:46.001Z,0.10
2018-12-13T19:53:13.066Z,0.10
2018-12-13T19:55:39.875Z,0.10
2018-12-13T19:58:06.603Z,0.10
2018-12-13T20:00:33.302Z,0.00
2018-12-13T20:03:00.039Z,0.00
2018-12-13T20:05:26.749Z,0.00
2018-12-13T20:07:53.482Z,0.00
2018-12-13T20:10:20.191Z,0.00
2018-12-13T20:12:46.914Z,0.00
2018-12-13T20:15:14.742Z,0.00
2018-12-13T20:17:41.443Z,0.00
2018-12-13T20:20:08.175Z,0.00
2018-12-13T20:22:34.879Z,0.00
2018-12-13T20:25:01.606Z,-0.10
2018-12-13T20:27:28.331Z,0.00
2018-12-13T20:29:55.056Z,0.00
2018-12-13T20:32:22.174Z,0.00
2018-12-13T20:34:49.114Z,0.10
2018-12-13T20:37:15.806Z,0.00
2018-12-13T20:39:42.523Z,0.00
2018-12-13T20:42:09.298Z,0.10
2018-12-13T20:44:36.021Z,0.10
2018-12-13T20:47:02.938Z,0.10
2018-12-13T20:49:29.989Z,0.10
2018-12-13T20:51:56.681Z,0.10
2018-12-13T20:54:23.771Z,0.10
2018-12-13T20:56:50.638Z,0.10
2018-12-13T20:59:17.372Z,0.10
2018-12-13T21:01:44.082Z,0.10
2018-12-13T21:04:10.802Z,0.10
2018-12-13T21:06:38.818Z,0.10
2018-12-13T21:09:05.910Z,0.10
2018-12-13T21:11:32.607Z,0.10
2018-12-13T21:13:59.346Z,0.10
2018-12-13T21:16:26.057Z,0.10
2018-12-13T21:18:52.778Z,0.00
2018-12-13T21:21:19.506Z,0.00
2018-12-13T21:23:46.478Z,0.10
2018-12-13T21:26:13.189Z,0.00
2018-12-13T21:28:39.909Z,0.00
2018-12-13T21:31:06.607Z,0.00
2018-12-13T21:33:33.335Z,0.10
2018-12-13T21:36:00.030Z,0.10
2018-12-13T21:38:26.756Z,0.10
2018-12-13T21:40:53.466Z,0.10
2018-12-13T21:43:20.323Z,0.10
2018-12-13T21:45:47.016Z,0.10
2018-12-13T21:48:13.830Z,0.10
2018-12-13T21:50:40.559Z,0.10
2018-12-13T21:53:07.255Z,0.10
2018-12-13T21:55:33.990Z,0.10
2018-12-13T21:58:00.710Z,0.20
2018-12-13T22:00:27.437Z,0.20
2018-12-13T22:02:54.139Z,0.10
2018-12-13T22:05:20.867Z,0.10
2018-12-13T22:07:47.557Z,0.10
2018-12-13T22:10:14.278Z,0.10
2018-12-13T22:12:40.975Z,0.00
2018-12-13T22:15:10.622Z,0.00
2018-12-13T22:17:37.315Z,0.00
2018-12-13T22:20:04.050Z,0.00
2018-12-13T22:22:30.746Z,0.00
2018-12-13T22:24:57.471Z,0.00
2018-12-13T22:27:24.178Z,0.00
2018-12-13T22:29:57.738Z,0.00
2018-12-13T22:32:24.428Z,-0.10
2018-12-13T22:34:51.159Z,0.00
2018-12-13T22:37:17.866Z,0.00
2018-12-13T22:39:44.593Z,0.00
2018-12-13T22:42:11.323Z,0.00
2018-12-13T22:44:38.042Z,0.00
2018-12-13T22:47:04.739Z,0.00
2018-12-13T22:49:31.471Z,0.00
2018-12-13T22:51:58.178Z,0.00
2018-12-13T22:54:24.903Z,0.00
2018-12-13T22:56:51.607Z,0.00
2018-12-13T22:59:18.343Z,0.10
2018-12-13T23:01:45.039Z,0.00
2018-12-13T23:04:11.865Z,0.00
2018-12-13T23:06:38.723Z,0.00
2018-12-13T23:09:05.800Z,0.00
2018-12-13T23:11:32.850Z,0.00
2018-12-13T23:13:59.738Z,-0.10
2018-12-13T23:16:26.435Z,-0.10
2018-12-13T23:18:53.163Z,-0.10
2018-12-13T23:21:19.858Z,-0.10
2018-12-13T23:23:46.578Z,-0.10
2018-12-13T23:26:20.234Z,-0.20
2018-12-13T23:28:46.957Z,-0.10
2018-12-13T23:31:13.666Z,-0.10
2018-12-13T23:33:40.357Z,-0.20
2018-12-13T23:36:07.073Z,-0.20
2018-12-13T23:38:33.771Z,-0.20
2018-12-13T23:41:00.474Z,-0.20
2018-12-13T23:43:27.174Z,-0.30
2018-12-13T23:45:53.868Z,-0.30
2018-12-13T23:48:20.599Z,-0.30
2018-12-13T23:50:47.294Z,-0.30
2018-12-13T23:53:13.999Z,-0.20
2018-12-13T23:55:40.686Z,-0.20
2018-12-13T23:58:07.391Z,-0.30
